sensor_id;sensor_type;location;lat;lon;timestamp;P1;durP1;ratioP1;P2;durP2;ratioP2
74612;SDS011;63119;51.788;8.824;2023-05-07T00:00:24;15.63;;;9.03;;
74612;SDS011;63119;51.788;8.824;2023-05-07T00:02:50;17.10;;;10.15;;
74612;SDS011;63119;51.788;8.824;2023-05-07T00:05:16;18.27;;;9.90;;
74612;SDS011;63119;51.788;8.824;2023-05-07T00:07:42;17.00;;;9.75;;
74612;SDS011;63119;51.788;8.824;2023-05-07T00:10:07;16.30;;;9.57;;
74612;SDS011;63119;51.788;8.824;2023-05-07T00:12:33;20.10;;;10.07;;
74612;SDS011;63119;51.788;8.824;2023-05-07T00:14:59;14.40;;;9.53;;
74612;SDS011;63119;51.788;8.824;2023-05-07T00:17:25;19.33;;;9.85;;
74612;SDS011;63119;51.788;8.824;2023-05-07T00:19:50;15.00;;;9.53;;
74612;SDS011;63119;51.788;8.824;2023-05-07T00:22:16;17.47;;;9.90;;
74612;SDS011;63119;51.788;8.824;2023-05-07T00:24:41;18.50;;;10.03;;
74612;SDS011;63119;51.788;8.824;2023-05-07T00:27:06;19.30;;;9.88;;
74612;SDS011;63119;51.788;8.824;2023-05-07T00:29:32;17.73;;;10.93;;
74612;SDS011;63119;51.788;8.824;2023-05-07T00:31:57;18.77;;;10.93;;
74612;SDS011;63119;51.788;8.824;2023-05-07T00:34:22;16.13;;;10.27;;
74612;SDS011;63119;51.788;8.824;2023-05-07T00:36:48;17.67;;;10.63;;
74612;SDS011;63119;51.788;8.824;2023-05-07T00:39:13;17.92;;;12.23;;
74612;SDS011;63119;51.788;8.824;2023-05-07T00:41:38;19.47;;;11.03;;
74612;SDS011;63119;51.788;8.824;2023-05-07T00:44:04;16.48;;;11.35;;
74612;SDS011;63119;51.788;8.824;2023-05-07T00:46:29;19.57;;;11.47;;
74612;SDS011;63119;51.788;8.824;2023-05-07T00:48:55;18.52;;;12.10;;
74612;SDS011;63119;51.788;8.824;2023-05-07T00:51:21;17.10;;;10.33;;
74612;SDS011;63119;51.788;8.824;2023-05-07T00:53:46;19.92;;;11.23;;
74612;SDS011;63119;51.788;8.824;2023-05-07T00:56:12;19.67;;;11.55;;
74612;SDS011;63119;51.788;8.824;2023-05-07T00:58:38;19.17;;;11.88;;
74612;SDS011;63119;51.788;8.824;2023-05-07T01:01:03;18.38;;;11.30;;
74612;SDS011;63119;51.788;8.824;2023-05-07T01:03:28;20.00;;;11.23;;
74612;SDS011;63119;51.788;8.824;2023-05-07T01:05:54;17.90;;;11.48;;
74612;SDS011;63119;51.788;8.824;2023-05-07T01:08:22;18.75;;;12.15;;
74612;SDS011;63119;51.788;8.824;2023-05-07T01:10:49;19.00;;;11.60;;
74612;SDS011;63119;51.788;8.824;2023-05-07T01:13:16;20.13;;;11.05;;
74612;SDS011;63119;51.788;8.824;2023-05-07T01:15:42;18.05;;;11.85;;
74612;SDS011;63119;51.788;8.824;2023-05-07T01:18:08;18.15;;;11.95;;
74612;SDS011;63119;51.788;8.824;2023-05-07T01:20:33;17.40;;;10.83;;
74612;SDS011;63119;51.788;8.824;2023-05-07T01:22:58;16.83;;;11.30;;
74612;SDS011;63119;51.788;8.824;2023-05-07T01:25:25;18.95;;;11.90;;
74612;SDS011;63119;51.788;8.824;2023-05-07T01:27:50;19.35;;;11.85;;
74612;SDS011;63119;51.788;8.824;2023-05-07T01:30:16;19.03;;;11.70;;
74612;SDS011;63119;51.788;8.824;2023-05-07T01:32:45;19.10;;;12.40;;
74612;SDS011;63119;51.788;8.824;2023-05-07T01:35:17;21.88;;;11.63;;
74612;SDS011;63119;51.788;8.824;2023-05-07T01:37:45;19.60;;;12.15;;
74612;SDS011;63119;51.788;8.824;2023-05-07T01:40:11;19.60;;;11.95;;
74612;SDS011;63119;51.788;8.824;2023-05-07T01:42:37;18.27;;;11.00;;
74612;SDS011;63119;51.788;8.824;2023-05-07T01:45:02;20.90;;;11.98;;
74612;SDS011;63119;51.788;8.824;2023-05-07T01:47:28;19.25;;;12.38;;
74612;SDS011;63119;51.788;8.824;2023-05-07T01:49:54;19.55;;;12.10;;
74612;SDS011;63119;51.788;8.824;2023-05-07T01:52:20;18.27;;;11.90;;
74612;SDS011;63119;51.788;8.824;2023-05-07T01:54:45;19.40;;;12.25;;
74612;SDS011;63119;51.788;8.824;2023-05-07T01:57:11;19.63;;;12.17;;
74612;SDS011;63119;51.788;8.824;2023-05-07T01:59:36;21.70;;;12.40;;
74612;SDS011;63119;51.788;8.824;2023-05-07T02:02:01;18.00;;;11.83;;
74612;SDS011;63119;51.788;8.824;2023-05-07T02:04:26;21.27;;;11.80;;
74612;SDS011;63119;51.788;8.824;2023-05-07T02:06:52;19.53;;;11.57;;
74612;SDS011;63119;51.788;8.824;2023-05-07T02:09:17;22.42;;;12.10;;
74612;SDS011;63119;51.788;8.824;2023-05-07T02:11:43;20.23;;;12.82;;
74612;SDS011;63119;51.788;8.824;2023-05-07T02:14:08;21.03;;;11.73;;
74612;SDS011;63119;51.788;8.824;2023-05-07T02:16:33;19.77;;;12.50;;
74612;SDS011;63119;51.788;8.824;2023-05-07T02:18:58;20.33;;;12.20;;
74612;SDS011;63119;51.788;8.824;2023-05-07T02:21:24;22.03;;;12.90;;
74612;SDS011;63119;51.788;8.824;2023-05-07T02:23:50;19.13;;;12.40;;
74612;SDS011;63119;51.788;8.824;2023-05-07T02:26:15;20.97;;;12.67;;
74612;SDS011;63119;51.788;8.824;2023-05-07T02:28:40;19.33;;;11.93;;
74612;SDS011;63119;51.788;8.824;2023-05-07T02:31:05;22.20;;;12.33;;
74612;SDS011;63119;51.788;8.824;2023-05-07T02:33:31;21.83;;;12.87;;
74612;SDS011;63119;51.788;8.824;2023-05-07T02:35:56;17.85;;;12.10;;
74612;SDS011;63119;51.788;8.824;2023-05-07T02:38:22;20.65;;;12.95;;
74612;SDS011;63119;51.788;8.824;2023-05-07T02:40:48;20.90;;;11.93;;
74612;SDS011;63119;51.788;8.824;2023-05-07T02:43:13;19.93;;;11.77;;
74612;SDS011;63119;51.788;8.824;2023-05-07T02:45:38;22.43;;;12.73;;
74612;SDS011;63119;51.788;8.824;2023-05-07T02:48:04;21.50;;;12.70;;
74612;SDS011;63119;51.788;8.824;2023-05-07T02:50:30;22.42;;;12.60;;
74612;SDS011;63119;51.788;8.824;2023-05-07T02:52:57;22.00;;;12.52;;
74612;SDS011;63119;51.788;8.824;2023-05-07T02:55:22;20.83;;;11.88;;
74612;SDS011;63119;51.788;8.824;2023-05-07T02:57:48;23.13;;;13.30;;
74612;SDS011;63119;51.788;8.824;2023-05-07T03:00:13;21.27;;;13.00;;
74612;SDS011;63119;51.788;8.824;2023-05-07T03:02:40;25.73;;;13.27;;
74612;SDS011;63119;51.788;8.824;2023-05-07T03:05:06;23.33;;;13.40;;
74612;SDS011;63119;51.788;8.824;2023-05-07T03:07:31;23.15;;;14.35;;
74612;SDS011;63119;51.788;8.824;2023-05-07T03:09:57;23.40;;;13.15;;
74612;SDS011;63119;51.788;8.824;2023-05-07T03:12:22;23.60;;;14.17;;
74612;SDS011;63119;51.788;8.824;2023-05-07T03:14:47;24.53;;;14.60;;
74612;SDS011;63119;51.788;8.824;2023-05-07T03:17:12;25.77;;;15.17;;
74612;SDS011;63119;51.788;8.824;2023-05-07T03:19:38;28.70;;;16.13;;
74612;SDS011;63119;51.788;8.824;2023-05-07T03:22:03;26.23;;;14.40;;
74612;SDS011;63119;51.788;8.824;2023-05-07T03:24:28;28.93;;;14.73;;
74612;SDS011;63119;51.788;8.824;2023-05-07T03:26:53;26.80;;;14.93;;
74612;SDS011;63119;51.788;8.824;2023-05-07T03:29:19;31.53;;;15.83;;
74612;SDS011;63119;51.788;8.824;2023-05-07T03:31:44;25.33;;;14.88;;
74612;SDS011;63119;51.788;8.824;2023-05-07T03:34:10;27.75;;;15.20;;
74612;SDS011;63119;51.788;8.824;2023-05-07T03:36:35;26.53;;;15.63;;
74612;SDS011;63119;51.788;8.824;2023-05-07T03:39:00;28.63;;;14.23;;
74612;SDS011;63119;51.788;8.824;2023-05-07T03:41:25;27.10;;;15.53;;
74612;SDS011;63119;51.788;8.824;2023-05-07T03:43:51;24.33;;;14.37;;
74612;SDS011;63119;51.788;8.824;2023-05-07T03:46:16;29.43;;;15.17;;
74612;SDS011;63119;51.788;8.824;2023-05-07T03:48:41;28.07;;;15.57;;
74612;SDS011;63119;51.788;8.824;2023-05-07T03:51:06;27.93;;;15.57;;
74612;SDS011;63119;51.788;8.824;2023-05-07T03:53:32;30.47;;;14.93;;
74612;SDS011;63119;51.788;8.824;2023-05-07T03:55:57;28.00;;;15.27;;
74612;SDS011;63119;51.788;8.824;2023-05-07T03:58:22;29.07;;;15.00;;
74612;SDS011;63119;51.788;8.824;2023-05-07T04:00:47;31.97;;;15.97;;
74612;SDS011;63119;51.788;8.824;2023-05-07T04:03:13;31.57;;;16.27;;
74612;SDS011;63119;51.788;8.824;2023-05-07T04:05:39;26.48;;;15.75;;
74612;SDS011;63119;51.788;8.824;2023-05-07T04:08:04;29.42;;;14.93;;
74612;SDS011;63119;51.788;8.824;2023-05-07T04:10:30;29.10;;;16.15;;
74612;SDS011;63119;51.788;8.824;2023-05-07T04:12:55;27.25;;;15.23;;
74612;SDS011;63119;51.788;8.824;2023-05-07T04:15:21;27.52;;;15.60;;
74612;SDS011;63119;51.788;8.824;2023-05-07T04:17:47;27.80;;;15.95;;
74612;SDS011;63119;51.788;8.824;2023-05-07T04:20:14;30.20;;;16.13;;
74612;SDS011;63119;51.788;8.824;2023-05-07T04:22:40;28.42;;;15.70;;
74612;SDS011;63119;51.788;8.824;2023-05-07T04:25:06;27.98;;;15.13;;
74612;SDS011;63119;51.788;8.824;2023-05-07T04:27:32;26.92;;;15.07;;
74612;SDS011;63119;51.788;8.824;2023-05-07T04:29:58;26.83;;;14.93;;
74612;SDS011;63119;51.788;8.824;2023-05-07T04:32:23;29.93;;;15.57;;
74612;SDS011;63119;51.788;8.824;2023-05-07T04:34:49;25.90;;;15.02;;
74612;SDS011;63119;51.788;8.824;2023-05-07T04:37:15;28.00;;;14.10;;
74612;SDS011;63119;51.788;8.824;2023-05-07T04:39:40;25.77;;;15.83;;
74612;SDS011;63119;51.788;8.824;2023-05-07T04:42:05;30.50;;;14.83;;
74612;SDS011;63119;51.788;8.824;2023-05-07T04:44:33;27.38;;;14.82;;
74612;SDS011;63119;51.788;8.824;2023-05-07T04:46:59;28.67;;;14.00;;
74612;SDS011;63119;51.788;8.824;2023-05-07T04:49:24;29.43;;;14.77;;
74612;SDS011;63119;51.788;8.824;2023-05-07T04:51:50;26.10;;;14.80;;
74612;SDS011;63119;51.788;8.824;2023-05-07T04:54:15;22.00;;;12.77;;
74612;SDS011;63119;51.788;8.824;2023-05-07T04:56:41;25.93;;;13.90;;
74612;SDS011;63119;51.788;8.824;2023-05-07T04:59:06;26.30;;;14.50;;
74612;SDS011;63119;51.788;8.824;2023-05-07T05:01:31;26.43;;;15.07;;
74612;SDS011;63119;51.788;8.824;2023-05-07T05:03:56;26.13;;;13.70;;
74612;SDS011;63119;51.788;8.824;2023-05-07T05:06:22;25.70;;;13.70;;
74612;SDS011;63119;51.788;8.824;2023-05-07T05:08:47;23.97;;;13.43;;
74612;SDS011;63119;51.788;8.824;2023-05-07T05:11:12;27.00;;;13.93;;
74612;SDS011;63119;51.788;8.824;2023-05-07T05:13:37;25.67;;;13.60;;
74612;SDS011;63119;51.788;8.824;2023-05-07T05:16:03;25.47;;;14.30;;
74612;SDS011;63119;51.788;8.824;2023-05-07T05:18:28;27.58;;;14.00;;
74612;SDS011;63119;51.788;8.824;2023-05-07T05:20:54;23.67;;;12.77;;
74612;SDS011;63119;51.788;8.824;2023-05-07T05:23:19;27.23;;;14.43;;
74612;SDS011;63119;51.788;8.824;2023-05-07T05:25:45;24.50;;;13.18;;
74612;SDS011;63119;51.788;8.824;2023-05-07T05:28:10;26.33;;;12.93;;
74612;SDS011;63119;51.788;8.824;2023-05-07T05:30:35;28.33;;;13.07;;
74612;SDS011;63119;51.788;8.824;2023-05-07T05:33:00;24.27;;;13.40;;
74612;SDS011;63119;51.788;8.824;2023-05-07T05:35:26;21.63;;;12.60;;
74612;SDS011;63119;51.788;8.824;2023-05-07T05:37:51;24.70;;;13.07;;
74612;SDS011;63119;51.788;8.824;2023-05-07T05:40:16;23.50;;;12.50;;
74612;SDS011;63119;51.788;8.824;2023-05-07T05:42:42;23.07;;;12.37;;
74612;SDS011;63119;51.788;8.824;2023-05-07T05:45:07;25.40;;;12.67;;
74612;SDS011;63119;51.788;8.824;2023-05-07T05:47:33;21.88;;;12.55;;
74612;SDS011;63119;51.788;8.824;2023-05-07T05:49:58;22.70;;;12.60;;
74612;SDS011;63119;51.788;8.824;2023-05-07T05:52:24;25.63;;;12.83;;
74612;SDS011;63119;51.788;8.824;2023-05-07T05:54:49;20.97;;;12.10;;
74612;SDS011;63119;51.788;8.824;2023-05-07T05:57:14;22.13;;;11.40;;
74612;SDS011;63119;51.788;8.824;2023-05-07T05:59:40;19.73;;;11.85;;
74612;SDS011;63119;51.788;8.824;2023-05-07T06:02:05;21.40;;;11.10;;
74612;SDS011;63119;51.788;8.824;2023-05-07T06:04:31;23.42;;;11.43;;
74612;SDS011;63119;51.788;8.824;2023-05-07T06:06:56;21.20;;;10.60;;
74612;SDS011;63119;51.788;8.824;2023-05-07T06:09:22;19.98;;;11.10;;
74612;SDS011;63119;51.788;8.824;2023-05-07T06:11:47;22.77;;;11.57;;
74612;SDS011;63119;51.788;8.824;2023-05-07T06:14:12;20.47;;;10.77;;
74612;SDS011;63119;51.788;8.824;2023-05-07T06:16:37;19.33;;;10.70;;
74612;SDS011;63119;51.788;8.824;2023-05-07T06:19:03;19.47;;;9.90;;
74612;SDS011;63119;51.788;8.824;2023-05-07T06:21:28;19.53;;;10.60;;
74612;SDS011;63119;51.788;8.824;2023-05-07T06:23:53;19.50;;;10.00;;
74612;SDS011;63119;51.788;8.824;2023-05-07T06:26:19;20.13;;;10.88;;
74612;SDS011;63119;51.788;8.824;2023-05-07T06:28:45;19.15;;;11.05;;
74612;SDS011;63119;51.788;8.824;2023-05-07T06:31:14;19.17;;;10.57;;
74612;SDS011;63119;51.788;8.824;2023-05-07T06:33:41;21.60;;;10.77;;
74612;SDS011;63119;51.788;8.824;2023-05-07T06:36:06;20.13;;;10.63;;
74612;SDS011;63119;51.788;8.824;2023-05-07T06:38:32;18.30;;;10.77;;
74612;SDS011;63119;51.788;8.824;2023-05-07T06:40:57;19.83;;;9.70;;
74612;SDS011;63119;51.788;8.824;2023-05-07T06:43:22;22.70;;;10.50;;
74612;SDS011;63119;51.788;8.824;2023-05-07T06:45:48;16.63;;;9.57;;
74612;SDS011;63119;51.788;8.824;2023-05-07T06:48:13;15.90;;;8.83;;
74612;SDS011;63119;51.788;8.824;2023-05-07T06:50:38;15.27;;;10.20;;
74612;SDS011;63119;51.788;8.824;2023-05-07T06:53:03;16.40;;;9.50;;
74612;SDS011;63119;51.788;8.824;2023-05-07T06:55:29;16.90;;;10.13;;
74612;SDS011;63119;51.788;8.824;2023-05-07T06:57:54;19.00;;;10.40;;
74612;SDS011;63119;51.788;8.824;2023-05-07T07:00:19;17.67;;;9.60;;
74612;SDS011;63119;51.788;8.824;2023-05-07T07:02:45;17.33;;;9.63;;
74612;SDS011;63119;51.788;8.824;2023-05-07T07:05:10;15.23;;;9.40;;
74612;SDS011;63119;51.788;8.824;2023-05-07T07:07:35;19.43;;;10.23;;
74612;SDS011;63119;51.788;8.824;2023-05-07T07:10:01;17.97;;;9.53;;
74612;SDS011;63119;51.788;8.824;2023-05-07T07:12:26;15.80;;;9.05;;
74612;SDS011;63119;51.788;8.824;2023-05-07T07:14:53;16.63;;;8.80;;
74612;SDS011;63119;51.788;8.824;2023-05-07T07:17:19;14.53;;;8.80;;
74612;SDS011;63119;51.788;8.824;2023-05-07T07:19:44;16.63;;;9.40;;
74612;SDS011;63119;51.788;8.824;2023-05-07T07:22:09;14.90;;;8.63;;
74612;SDS011;63119;51.788;8.824;2023-05-07T07:24:35;12.18;;;8.02;;
74612;SDS011;63119;51.788;8.824;2023-05-07T07:27:00;16.30;;;9.93;;
74612;SDS011;63119;51.788;8.824;2023-05-07T07:29:25;17.57;;;9.33;;
74612;SDS011;63119;51.788;8.824;2023-05-07T07:31:51;15.20;;;8.93;;
74612;SDS011;63119;51.788;8.824;2023-05-07T07:34:17;16.43;;;9.17;;
74612;SDS011;63119;51.788;8.824;2023-05-07T07:36:42;13.30;;;8.13;;
74612;SDS011;63119;51.788;8.824;2023-05-07T07:39:07;12.93;;;7.80;;
74612;SDS011;63119;51.788;8.824;2023-05-07T07:41:32;17.80;;;9.13;;
74612;SDS011;63119;51.788;8.824;2023-05-07T07:43:57;13.37;;;8.47;;
74612;SDS011;63119;51.788;8.824;2023-05-07T07:46:23;16.27;;;8.95;;
74612;SDS011;63119;51.788;8.824;2023-05-07T07:48:48;15.63;;;8.75;;
74612;SDS011;63119;51.788;8.824;2023-05-07T07:51:14;16.23;;;9.10;;
74612;SDS011;63119;51.788;8.824;2023-05-07T07:53:39;16.38;;;9.05;;
74612;SDS011;63119;51.788;8.824;2023-05-07T07:56:04;16.53;;;8.27;;
74612;SDS011;63119;51.788;8.824;2023-05-07T07:58:30;14.83;;;8.30;;
74612;SDS011;63119;51.788;8.824;2023-05-07T08:00:55;15.77;;;8.85;;
74612;SDS011;63119;51.788;8.824;2023-05-07T08:03:21;15.60;;;8.43;;
74612;SDS011;63119;51.788;8.824;2023-05-07T08:05:46;15.35;;;8.05;;
74612;SDS011;63119;51.788;8.824;2023-05-07T08:08:11;14.10;;;7.50;;
74612;SDS011;63119;51.788;8.824;2023-05-07T08:10:36;13.83;;;8.10;;
74612;SDS011;63119;51.788;8.824;2023-05-07T08:13:04;15.00;;;8.52;;
74612;SDS011;63119;51.788;8.824;2023-05-07T08:15:30;14.43;;;8.20;;
74612;SDS011;63119;51.788;8.824;2023-05-07T08:17:55;14.95;;;8.30;;
74612;SDS011;63119;51.788;8.824;2023-05-07T08:20:22;15.85;;;8.18;;
74612;SDS011;63119;51.788;8.824;2023-05-07T08:22:47;14.80;;;8.02;;
74612;SDS011;63119;51.788;8.824;2023-05-07T08:25:13;17.03;;;8.23;;
74612;SDS011;63119;51.788;8.824;2023-05-07T08:27:38;13.10;;;7.53;;
74612;SDS011;63119;51.788;8.824;2023-05-07T08:30:03;13.93;;;8.77;;
74612;SDS011;63119;51.788;8.824;2023-05-07T08:32:29;13.98;;;7.75;;
74612;SDS011;63119;51.788;8.824;2023-05-07T08:34:54;14.27;;;7.60;;
74612;SDS011;63119;51.788;8.824;2023-05-07T08:37:20;14.37;;;7.97;;
74612;SDS011;63119;51.788;8.824;2023-05-07T08:39:45;15.73;;;8.77;;
74612;SDS011;63119;51.788;8.824;2023-05-07T08:42:11;14.90;;;8.00;;
74612;SDS011;63119;51.788;8.824;2023-05-07T08:44:37;14.68;;;8.73;;
74612;SDS011;63119;51.788;8.824;2023-05-07T08:47:06;13.23;;;7.70;;
74612;SDS011;63119;51.788;8.824;2023-05-07T08:49:31;14.52;;;8.25;;
74612;SDS011;63119;51.788;8.824;2023-05-07T08:51:59;15.07;;;8.57;;
74612;SDS011;63119;51.788;8.824;2023-05-07T08:54:25;13.10;;;7.20;;
74612;SDS011;63119;51.788;8.824;2023-05-07T08:56:51;16.10;;;8.30;;
74612;SDS011;63119;51.788;8.824;2023-05-07T08:59:16;14.03;;;8.13;;
74612;SDS011;63119;51.788;8.824;2023-05-07T09:01:41;17.63;;;8.47;;
74612;SDS011;63119;51.788;8.824;2023-05-07T09:04:07;15.80;;;8.45;;
74612;SDS011;63119;51.788;8.824;2023-05-07T09:06:33;14.63;;;7.75;;
74612;SDS011;63119;51.788;8.824;2023-05-07T09:08:59;13.95;;;8.10;;
74612;SDS011;63119;51.788;8.824;2023-05-07T09:11:26;15.55;;;8.75;;
74612;SDS011;63119;51.788;8.824;2023-05-07T09:13:54;15.60;;;8.63;;
74612;SDS011;63119;51.788;8.824;2023-05-07T09:16:21;15.57;;;8.15;;
74612;SDS011;63119;51.788;8.824;2023-05-07T09:18:48;14.02;;;7.82;;
74612;SDS011;63119;51.788;8.824;2023-05-07T09:21:17;15.15;;;9.07;;
74612;SDS011;63119;51.788;8.824;2023-05-07T09:23:43;14.18;;;7.82;;
74612;SDS011;63119;51.788;8.824;2023-05-07T09:26:08;15.52;;;8.23;;
74612;SDS011;63119;51.788;8.824;2023-05-07T09:28:45;13.90;;;7.60;;
74612;SDS011;63119;51.788;8.824;2023-05-07T09:31:11;13.45;;;7.75;;
74612;SDS011;63119;51.788;8.824;2023-05-07T09:33:37;13.30;;;8.07;;
74612;SDS011;63119;51.788;8.824;2023-05-07T09:36:04;13.27;;;7.60;;
74612;SDS011;63119;51.788;8.824;2023-05-07T09:38:30;12.23;;;7.90;;
74612;SDS011;63119;51.788;8.824;2023-05-07T09:41:01;13.32;;;7.53;;
74612;SDS011;63119;51.788;8.824;2023-05-07T09:43:31;14.77;;;8.20;;
74612;SDS011;63119;51.788;8.824;2023-05-07T09:45:58;13.80;;;7.60;;
74612;SDS011;63119;51.788;8.824;2023-05-07T09:48:27;13.80;;;7.00;;
74612;SDS011;63119;51.788;8.824;2023-05-07T09:50:55;15.43;;;7.20;;
74612;SDS011;63119;51.788;8.824;2023-05-07T09:53:23;11.60;;;6.55;;
74612;SDS011;63119;51.788;8.824;2023-05-07T09:55:49;13.32;;;6.65;;
74612;SDS011;63119;51.788;8.824;2023-05-07T09:58:15;12.75;;;6.32;;
74612;SDS011;63119;51.788;8.824;2023-05-07T10:00:43;12.93;;;7.22;;
74612;SDS011;63119;51.788;8.824;2023-05-07T10:03:08;13.60;;;7.20;;
74612;SDS011;63119;51.788;8.824;2023-05-07T10:05:34;12.48;;;6.47;;
74612;SDS011;63119;51.788;8.824;2023-05-07T10:08:00;11.30;;;6.40;;
74612;SDS011;63119;51.788;8.824;2023-05-07T10:10:26;11.88;;;6.75;;
74612;SDS011;63119;51.788;8.824;2023-05-07T10:12:52;10.00;;;6.65;;
74612;SDS011;63119;51.788;8.824;2023-05-07T10:15:19;11.80;;;6.68;;
74612;SDS011;63119;51.788;8.824;2023-05-07T10:17:44;11.27;;;6.55;;
74612;SDS011;63119;51.788;8.824;2023-05-07T10:20:10;11.83;;;6.83;;
74612;SDS011;63119;51.788;8.824;2023-05-07T10:22:39;9.98;;;6.45;;
74612;SDS011;63119;51.788;8.824;2023-05-07T10:25:14;10.35;;;5.60;;
74612;SDS011;63119;51.788;8.824;2023-05-07T10:30:46;11.00;;;5.93;;
74612;SDS011;63119;51.788;8.824;2023-05-07T10:33:23;10.48;;;5.85;;
74612;SDS011;63119;51.788;8.824;2023-05-07T10:35:51;10.85;;;5.75;;
74612;SDS011;63119;51.788;8.824;2023-05-07T10:38:20;9.60;;;5.60;;
74612;SDS011;63119;51.788;8.824;2023-05-07T10:40:46;9.20;;;5.50;;
74612;SDS011;63119;51.788;8.824;2023-05-07T10:43:11;10.93;;;6.40;;
74612;SDS011;63119;51.788;8.824;2023-05-07T10:45:36;10.63;;;6.20;;
74612;SDS011;63119;51.788;8.824;2023-05-07T10:50:40;8.10;;;5.28;;
74612;SDS011;63119;51.788;8.824;2023-05-07T10:55:41;13.02;;;6.85;;
74612;SDS011;63119;51.788;8.824;2023-05-07T10:58:22;9.17;;;5.50;;
74612;SDS011;63119;51.788;8.824;2023-05-07T11:00:50;9.85;;;5.47;;
74612;SDS011;63119;51.788;8.824;2023-05-07T11:03:20;9.60;;;5.78;;
74612;SDS011;63119;51.788;8.824;2023-05-07T11:05:47;8.27;;;5.43;;
74612;SDS011;63119;51.788;8.824;2023-05-07T11:08:13;9.50;;;5.43;;
74612;SDS011;63119;51.788;8.824;2023-05-07T11:10:52;7.43;;;5.17;;
74612;SDS011;63119;51.788;8.824;2023-05-07T11:13:17;9.63;;;4.93;;
74612;SDS011;63119;51.788;8.824;2023-05-07T11:15:47;8.25;;;4.80;;
74612;SDS011;63119;51.788;8.824;2023-05-07T11:18:17;7.00;;;4.80;;
74612;SDS011;63119;51.788;8.824;2023-05-07T11:20:49;8.80;;;5.07;;
74612;SDS011;63119;51.788;8.824;2023-05-07T11:26:03;7.90;;;4.53;;
74612;SDS011;63119;51.788;8.824;2023-05-07T11:28:42;9.23;;;4.97;;
74612;SDS011;63119;51.788;8.824;2023-05-07T11:31:08;8.30;;;5.00;;
74612;SDS011;63119;51.788;8.824;2023-05-07T11:33:34;6.93;;;4.38;;
74612;SDS011;63119;51.788;8.824;2023-05-07T11:36:04;8.90;;;4.57;;
74612;SDS011;63119;51.788;8.824;2023-05-07T11:38:30;5.97;;;3.80;;
74612;SDS011;63119;51.788;8.824;2023-05-07T11:40:56;7.28;;;4.25;;
74612;SDS011;63119;51.788;8.824;2023-05-07T11:43:27;6.80;;;4.03;;
74612;SDS011;63119;51.788;8.824;2023-05-07T11:45:53;7.07;;;4.82;;
74612;SDS011;63119;51.788;8.824;2023-05-07T11:48:18;7.70;;;4.50;;
74612;SDS011;63119;51.788;8.824;2023-05-07T11:50:49;8.15;;;4.90;;
74612;SDS011;63119;51.788;8.824;2023-05-07T11:53:16;7.28;;;3.95;;
74612;SDS011;63119;51.788;8.824;2023-05-07T11:55:42;7.32;;;4.20;;
74612;SDS011;63119;51.788;8.824;2023-05-07T11:58:07;6.57;;;4.00;;
74612;SDS011;63119;51.788;8.824;2023-05-07T12:00:35;8.32;;;4.72;;
74612;SDS011;63119;51.788;8.824;2023-05-07T12:03:04;7.28;;;4.60;;
74612;SDS011;63119;51.788;8.824;2023-05-07T12:05:30;7.55;;;4.43;;
74612;SDS011;63119;51.788;8.824;2023-05-07T12:07:56;6.60;;;3.97;;
74612;SDS011;63119;51.788;8.824;2023-05-07T12:10:24;5.90;;;3.60;;
74612;SDS011;63119;51.788;8.824;2023-05-07T12:12:49;7.18;;;4.25;;
74612;SDS011;63119;51.788;8.824;2023-05-07T12:15:15;7.65;;;4.15;;
74612;SDS011;63119;51.788;8.824;2023-05-07T12:17:47;6.32;;;3.72;;
74612;SDS011;63119;51.788;8.824;2023-05-07T12:20:13;5.38;;;3.45;;
74612;SDS011;63119;51.788;8.824;2023-05-07T12:22:39;5.60;;;3.83;;
74612;SDS011;63119;51.788;8.824;2023-05-07T12:25:06;8.18;;;4.28;;
74612;SDS011;63119;51.788;8.824;2023-05-07T12:27:31;6.80;;;4.20;;
74612;SDS011;63119;51.788;8.824;2023-05-07T12:29:57;7.40;;;4.05;;
74612;SDS011;63119;51.788;8.824;2023-05-07T12:32:24;7.88;;;4.35;;
74612;SDS011;63119;51.788;8.824;2023-05-07T12:34:49;7.53;;;4.05;;
74612;SDS011;63119;51.788;8.824;2023-05-07T12:37:15;6.90;;;4.28;;
74612;SDS011;63119;51.788;8.824;2023-05-07T12:40:03;7.70;;;4.57;;
74612;SDS011;63119;51.788;8.824;2023-05-07T12:42:35;6.45;;;3.78;;
74612;SDS011;63119;51.788;8.824;2023-05-07T12:45:07;6.65;;;4.00;;
74612;SDS011;63119;51.788;8.824;2023-05-07T12:47:35;7.47;;;4.97;;
74612;SDS011;63119;51.788;8.824;2023-05-07T12:50:01;7.70;;;4.28;;
74612;SDS011;63119;51.788;8.824;2023-05-07T12:52:27;6.47;;;4.25;;
74612;SDS011;63119;51.788;8.824;2023-05-07T12:54:53;6.97;;;4.10;;
74612;SDS011;63119;51.788;8.824;2023-05-07T12:57:19;6.80;;;4.10;;
74612;SDS011;63119;51.788;8.824;2023-05-07T12:59:45;6.35;;;3.78;;
74612;SDS011;63119;51.788;8.824;2023-05-07T13:02:10;6.53;;;4.30;;
74612;SDS011;63119;51.788;8.824;2023-05-07T13:04:36;7.57;;;4.90;;
74612;SDS011;63119;51.788;8.824;2023-05-07T13:07:01;9.18;;;4.60;;
74612;SDS011;63119;51.788;8.824;2023-05-07T13:09:27;7.78;;;5.03;;
74612;SDS011;63119;51.788;8.824;2023-05-07T13:11:54;8.27;;;4.78;;
74612;SDS011;63119;51.788;8.824;2023-05-07T13:14:19;8.40;;;5.60;;
74612;SDS011;63119;51.788;8.824;2023-05-07T13:16:45;6.38;;;4.22;;
74612;SDS011;63119;51.788;8.824;2023-05-07T13:19:11;7.45;;;5.05;;
74612;SDS011;63119;51.788;8.824;2023-05-07T13:21:36;9.67;;;5.57;;
74612;SDS011;63119;51.788;8.824;2023-05-07T13:24:02;8.90;;;5.20;;
74612;SDS011;63119;51.788;8.824;2023-05-07T13:26:27;9.63;;;5.47;;
74612;SDS011;63119;51.788;8.824;2023-05-07T13:28:53;8.00;;;5.07;;
74612;SDS011;63119;51.788;8.824;2023-05-07T13:31:19;7.80;;;5.72;;
74612;SDS011;63119;51.788;8.824;2023-05-07T13:33:45;8.77;;;5.47;;
74612;SDS011;63119;51.788;8.824;2023-05-07T13:36:11;8.90;;;5.60;;
74612;SDS011;63119;51.788;8.824;2023-05-07T13:38:36;7.70;;;5.50;;
74612;SDS011;63119;51.788;8.824;2023-05-07T13:41:01;9.07;;;5.83;;
74612;SDS011;63119;51.788;8.824;2023-05-07T13:43:26;10.30;;;6.20;;
74612;SDS011;63119;51.788;8.824;2023-05-07T13:45:52;10.43;;;7.00;;
74612;SDS011;63119;51.788;8.824;2023-05-07T13:48:17;9.23;;;5.87;;
74612;SDS011;63119;51.788;8.824;2023-05-07T13:50:42;10.57;;;6.10;;
74612;SDS011;63119;51.788;8.824;2023-05-07T13:53:07;9.10;;;5.67;;
74612;SDS011;63119;51.788;8.824;2023-05-07T13:55:33;8.20;;;5.43;;
74612;SDS011;63119;51.788;8.824;2023-05-07T13:57:59;10.77;;;6.80;;
74612;SDS011;63119;51.788;8.824;2023-05-07T14:00:26;13.48;;;7.80;;
74612;SDS011;63119;51.788;8.824;2023-05-07T14:02:52;9.32;;;6.82;;
74612;SDS011;63119;51.788;8.824;2023-05-07T14:05:18;10.35;;;7.05;;
74612;SDS011;63119;51.788;8.824;2023-05-07T14:07:43;10.68;;;7.10;;
74612;SDS011;63119;51.788;8.824;2023-05-07T14:10:09;13.47;;;7.07;;
74612;SDS011;63119;51.788;8.824;2023-05-07T14:12:35;14.02;;;6.95;;
74612;SDS011;63119;51.788;8.824;2023-05-07T14:15:01;12.60;;;7.68;;
74612;SDS011;63119;51.788;8.824;2023-05-07T14:17:27;12.82;;;6.93;;
74612;SDS011;63119;51.788;8.824;2023-05-07T14:19:52;12.50;;;7.43;;
74612;SDS011;63119;51.788;8.824;2023-05-07T14:22:19;10.65;;;7.30;;
74612;SDS011;63119;51.788;8.824;2023-05-07T14:24:45;11.05;;;6.93;;
74612;SDS011;63119;51.788;8.824;2023-05-07T14:27:10;12.40;;;7.73;;
74612;SDS011;63119;51.788;8.824;2023-05-07T14:29:35;10.90;;;7.03;;
74612;SDS011;63119;51.788;8.824;2023-05-07T14:32:01;15.02;;;8.40;;
74612;SDS011;63119;51.788;8.824;2023-05-07T14:34:28;13.63;;;8.05;;